createdAt,value
2023-04-14T00:00:36.845Z,7.44
2023-04-14T00:03:03.951Z,7.40
2023-04-14T00:05:31.501Z,7.34
2023-04-14T00:07:58.158Z,7.30
2023-04-14T00:10:25.051Z,7.25
2023-04-14T00:12:52.023Z,7.21
2023-04-14T00:15:18.856Z,7.20
2023-04-14T00:17:45.491Z,7.17
2023-04-14T00:20:12.139Z,7.11
2023-04-14T00:22:38.687Z,7.07
2023-04-14T00:25:05.653Z,7.03
2023-04-14T00:27:32.151Z,7.02
2023-04-14T00:29:58.662Z,7.00
2023-04-14T00:32:25.286Z,6.95
2023-04-14T00:34:51.944Z,6.90
2023-04-14T00:37:18.462Z,6.86
2023-04-14T00:39:44.956Z,6.81
2023-04-14T00:42:11.654Z,6.81
2023-04-14T00:44:38.128Z,6.77
2023-04-14T00:47:05.670Z,6.74
2023-04-14T00:49:32.413Z,6.67
2023-04-14T00:51:59.415Z,6.67
2023-04-14T00:54:26.518Z,6.65
2023-04-14T00:56:54.038Z,6.63
2023-04-14T00:59:20.924Z,6.59
2023-04-14T01:01:47.466Z,6.51
2023-04-14T01:04:15.959Z,6.45
2023-04-14T01:06:42.534Z,6.47
2023-04-14T01:09:09.590Z,6.43
2023-04-14T01:11:45.283Z,6.43
2023-04-14T01:14:50.593Z,6.36
2023-04-14T01:17:22.747Z,6.34
2023-04-14T01:20:20.606Z,6.34
2023-04-14T01:22:55.319Z,6.31
2023-04-14T01:26:10.748Z,6.22
2023-04-14T01:29:34.377Z,6.23
2023-04-14T01:32:05.652Z,6.22
2023-04-14T01:34:50.724Z,6.22
2023-04-14T01:37:21.450Z,6.22
2023-04-14T01:39:54.318Z,6.23
2023-04-14T01:42:25.288Z,6.20
2023-04-14T01:44:56.913Z,6.16
2023-04-14T01:47:26.257Z,6.16
2023-04-14T01:49:53.847Z,6.19
2023-04-14T01:52:21.145Z,6.18
2023-04-14T01:54:51.716Z,6.17
2023-04-14T01:57:22.646Z,6.15
2023-04-14T01:59:51.967Z,6.10
2023-04-14T02:02:21.216Z,6.10
2023-04-14T02:04:49.628Z,6.08
2023-04-14T02:07:17.593Z,6.13
2023-04-14T02:09:45.607Z,6.10
2023-04-14T02:12:12.694Z,6.12
2023-04-14T02:14:41.811Z,6.13
2023-04-14T02:17:11.757Z,6.15
2023-04-14T02:19:39.306Z,6.15
2023-04-14T02:22:05.996Z,6.16
2023-04-14T02:24:32.648Z,6.17
2023-04-14T02:27:07.140Z,6.16
2023-04-14T02:29:36.097Z,6.15
2023-04-14T02:32:11.497Z,6.13
2023-04-14T02:34:55.617Z,6.10
2023-04-14T02:37:27.270Z,6.12
2023-04-14T02:39:59.141Z,6.14
2023-04-14T02:42:27.454Z,6.15
2023-04-14T02:45:22.529Z,6.15
2023-04-14T02:47:54.457Z,6.17
2023-04-14T02:50:22.532Z,6.15
2023-04-14T02:52:51.705Z,6.13
2023-04-14T02:55:23.067Z,6.12
2023-04-14T02:57:51.655Z,6.13
2023-04-14T03:00:19.146Z,6.10
2023-04-14T03:02:47.265Z,6.08
2023-04-14T03:05:14.460Z,6.11
2023-04-14T03:07:43.982Z,6.11
2023-04-14T03:10:14.448Z,6.12
2023-04-14T03:12:42.197Z,6.09
2023-04-14T03:15:10.255Z,6.09
2023-04-14T03:17:38.097Z,6.06
2023-04-14T03:20:05.302Z,6.09
2023-04-14T03:22:36.135Z,6.06
2023-04-14T03:25:02.760Z,6.02
2023-04-14T03:27:30.388Z,6.01
2023-04-14T03:30:03.706Z,6.00
2023-04-14T03:32:35.793Z,6.00
2023-04-14T03:35:02.974Z,6.01
2023-04-14T03:37:32.081Z,5.95
2023-04-14T03:40:02.164Z,6.01
2023-04-14T03:42:30.026Z,5.99
2023-04-14T03:44:58.566Z,5.99
2023-04-14T03:47:26.992Z,5.98
2023-04-14T03:49:57.596Z,5.96
2023-04-14T03:52:26.809Z,5.93
2023-04-14T03:54:58.928Z,5.89
2023-04-14T03:57:29.220Z,5.82
2023-04-14T03:59:56.963Z,5.86
2023-04-14T04:02:25.737Z,5.86
2023-04-14T04:04:54.403Z,5.88
2023-04-14T04:07:21.855Z,5.86
2023-04-14T04:09:50.679Z,5.84
2023-04-14T04:12:20.360Z,5.81
2023-04-14T04:14:47.142Z,5.79
2023-04-14T04:17:16.239Z,5.76
2023-04-14T04:19:44.683Z,5.76
2023-04-14T04:22:14.384Z,5.76
2023-04-14T04:24:42.468Z,5.73
2023-04-14T04:27:20.289Z,5.73
2023-04-14T04:29:53.752Z,5.74
2023-04-14T04:32:20.976Z,5.74
2023-04-14T04:34:50.900Z,5.70
2023-04-14T04:37:19.354Z,5.73
2023-04-14T04:39:45.904Z,5.66
2023-04-14T04:42:12.407Z,5.69
2023-04-14T04:44:38.935Z,5.64
2023-04-14T04:47:05.800Z,5.66
2023-04-14T04:49:32.354Z,5.68
2023-04-14T04:51:59.703Z,5.71
2023-04-14T04:54:27.128Z,5.68
2023-04-14T04:56:54.006Z,5.65
2023-04-14T04:59:20.445Z,5.63
2023-04-14T05:01:47.060Z,5.66
2023-04-14T05:04:13.595Z,5.62
2023-04-14T05:06:40.219Z,5.63
2023-04-14T05:09:07.141Z,5.60
2023-04-14T05:11:33.959Z,5.60
2023-04-14T05:14:01.192Z,5.59
2023-04-14T05:16:28.411Z,5.62
2023-04-14T05:18:54.918Z,5.54
2023-04-14T05:21:21.612Z,5.53
2023-04-14T05:23:48.270Z,5.55
2023-04-14T05:26:38.812Z,5.55
2023-04-14T05:29:02.043Z,5.61
2023-04-14T05:31:28.650Z,5.64
2023-04-14T05:33:55.134Z,5.67
2023-04-14T05:36:21.621Z,5.69
2023-04-14T05:38:48.098Z,5.76
2023-04-14T05:41:14.584Z,5.75
2023-04-14T05:43:41.140Z,5.79
2023-04-14T05:46:07.754Z,5.84
2023-04-14T05:48:36.306Z,5.88
2023-04-14T05:51:02.741Z,5.93
2023-04-14T05:53:29.180Z,5.94
2023-04-14T05:55:57.151Z,5.97
2023-04-14T05:58:26.234Z,6.01
2023-04-14T06:00:52.869Z,6.02
2023-04-14T06:03:19.708Z,6.08
2023-04-14T06:05:48.173Z,6.08
2023-04-14T06:08:14.707Z,6.09
2023-04-14T06:10:41.370Z,6.12
2023-04-14T06:13:08.693Z,6.13
2023-04-14T06:15:35.239Z,6.18
2023-04-14T06:18:01.813Z,6.25
2023-04-14T06:20:32.496Z,6.31
2023-04-14T06:23:00.798Z,6.40
2023-04-14T06:25:27.260Z,6.47
2023-04-14T06:27:53.700Z,6.55
2023-04-14T06:30:20.224Z,6.66
2023-04-14T06:32:48.568Z,6.77
2023-04-14T06:35:29.643Z,6.87
2023-04-14T06:37:58.625Z,7.03
2023-04-14T06:40:25.285Z,7.14
2023-04-14T06:42:51.703Z,7.26
2023-04-14T06:45:18.261Z,7.40
2023-04-14T06:47:44.839Z,7.56
2023-04-14T06:50:12.224Z,7.75
2023-04-14T06:52:38.668Z,7.93
2023-04-14T06:55:05.600Z,8.04
2023-04-14T06:57:32.092Z,8.20
2023-04-14T06:59:58.604Z,8.34
2023-04-14T07:02:25.266Z,8.48
2023-04-14T07:04:52.128Z,8.63
2023-04-14T07:07:18.632Z,8.68
2023-04-14T07:09:45.318Z,8.82
2023-04-14T07:12:16.879Z,8.89
2023-04-14T07:14:43.583Z,8.92
2023-04-14T07:17:10.040Z,9.00
2023-04-14T07:19:36.537Z,9.14
2023-04-14T07:22:03.045Z,9.21
2023-04-14T07:24:29.525Z,9.40
2023-04-14T07:26:56.140Z,9.44
2023-04-14T07:29:22.665Z,9.56
2023-04-14T07:31:49.219Z,9.68
2023-04-14T07:34:15.693Z,9.77
2023-04-14T07:36:42.523Z,9.88
2023-04-14T07:39:09.062Z,9.99
2023-04-14T07:41:35.553Z,10.06
2023-04-14T07:44:02.341Z,10.19
2023-04-14T07:46:29.092Z,10.33
2023-04-14T07:48:55.629Z,10.36
2023-04-14T07:51:24.613Z,10.44
2023-04-14T07:53:53.001Z,10.56
2023-04-14T07:56:19.535Z,10.71
2023-04-14T07:58:46.505Z,10.66
2023-04-14T08:01:14.106Z,10.81
2023-04-14T08:03:43.567Z,10.90
2023-04-14T08:06:11.759Z,10.98
2023-04-14T08:08:39.827Z,11.07
2023-04-14T08:11:06.286Z,11.25
2023-04-14T08:13:32.771Z,11.39
2023-04-14T08:15:59.245Z,11.42
2023-04-14T08:18:25.892Z,11.56
2023-04-14T08:20:52.401Z,11.62
2023-04-14T08:23:18.909Z,11.73
2023-04-14T08:25:45.649Z,11.83
2023-04-14T08:28:12.726Z,11.93
2023-04-14T08:30:39.226Z,12.05
2023-04-14T08:33:05.787Z,12.04
2023-04-14T08:35:39.537Z,12.16
2023-04-14T08:38:08.200Z,12.21
2023-04-14T08:40:41.107Z,12.27
2023-04-14T08:43:07.829Z,12.43
2023-04-14T08:45:35.546Z,12.50
2023-04-14T08:48:03.529Z,12.61
2023-04-14T08:50:37.604Z,12.59
2023-04-14T08:53:08.567Z,12.76
2023-04-14T08:55:36.832Z,12.83
2023-04-14T08:58:04.727Z,12.88
2023-04-14T09:00:31.347Z,13.02
2023-04-14T09:02:58.799Z,13.14
2023-04-14T09:05:26.094Z,13.20
2023-04-14T09:07:53.324Z,13.32
2023-04-14T09:10:22.196Z,13.42
2023-04-14T09:12:49.289Z,13.52
2023-04-14T09:15:16.938Z,13.61
2023-04-14T09:17:43.947Z,13.67
2023-04-14T09:20:36.435Z,13.80
2023-04-14T09:22:58.568Z,13.85
2023-04-14T09:25:25.153Z,13.97
2023-04-14T09:27:52.112Z,14.06
2023-04-14T09:30:19.085Z,14.00
2023-04-14T09:32:45.614Z,14.15
2023-04-14T09:35:16.202Z,14.28
2023-04-14T09:37:44.642Z,14.29
2023-04-14T09:40:26.465Z,14.44
2023-04-14T09:42:54.136Z,14.53
2023-04-14T09:45:20.645Z,14.67
2023-04-14T09:47:47.187Z,14.64
2023-04-14T09:50:13.691Z,14.81
2023-04-14T09:52:48.425Z,14.91
2023-04-14T09:55:16.811Z,15.15
2023-04-14T09:57:44.663Z,15.38
2023-04-14T10:00:21.500Z,15.68
2023-04-14T10:02:51.044Z,15.99
2023-04-14T10:05:21.423Z,16.21
2023-04-14T10:07:47.855Z,15.91
2023-04-14T10:10:14.366Z,15.72
2023-04-14T10:12:45.672Z,15.36
2023-04-14T10:15:17.218Z,15.19
2023-04-14T10:17:43.717Z,15.40
2023-04-14T10:20:10.685Z,15.51
2023-04-14T10:22:39.094Z,15.79
2023-04-14T10:25:09.129Z,15.61
2023-04-14T10:27:35.920Z,15.63
2023-04-14T10:30:02.561Z,15.81
2023-04-14T10:32:36.686Z,16.02
2023-04-14T10:35:05.316Z,16.30
2023-04-14T10:37:35.149Z,16.47
2023-04-14T10:40:09.807Z,16.75
2023-04-14T10:42:56.080Z,16.76
2023-04-14T10:45:22.796Z,16.70
2023-04-14T10:47:50.200Z,16.79
2023-04-14T10:50:18.563Z,16.96
2023-04-14T10:52:54.250Z,16.45
2023-04-14T10:55:28.339Z,16.48
2023-04-14T10:58:06.326Z,16.59
2023-04-14T11:00:37.909Z,16.53
2023-04-14T11:03:08.553Z,16.50
2023-04-14T11:05:35.611Z,16.59
2023-04-14T11:08:16.151Z,16.41
2023-04-14T11:11:01.975Z,16.22
2023-04-14T11:13:29.910Z,16.23
2023-04-14T11:16:04.000Z,16.25
2023-04-14T11:18:30.830Z,16.38
2023-04-14T11:21:06.663Z,16.50
2023-04-14T11:23:34.794Z,16.70
2023-04-14T11:26:01.612Z,16.80
2023-04-14T11:28:38.608Z,17.18
2023-04-14T11:31:06.834Z,17.57
2023-04-14T11:33:34.379Z,17.99
2023-04-14T11:36:02.427Z,17.98
2023-04-14T11:38:30.363Z,17.69
2023-04-14T11:40:57.397Z,17.27
2023-04-14T11:43:24.828Z,17.46
2023-04-14T11:45:52.162Z,17.46
2023-04-14T11:48:20.343Z,17.47
2023-04-14T11:50:48.151Z,17.30
2023-04-14T11:53:19.007Z,17.33
2023-04-14T11:55:48.029Z,17.64
2023-04-14T11:58:20.153Z,18.13
2023-04-14T12:00:48.492Z,18.49
2023-04-14T12:03:15.416Z,18.59
2023-04-14T12:05:42.616Z,18.23
2023-04-14T12:10:57.704Z,18.09
2023-04-14T12:13:24.837Z,18.47
2023-04-14T12:15:52.761Z,18.89
2023-04-14T12:20:48.343Z,19.28
2023-04-14T12:23:15.997Z,19.47
2023-04-14T12:25:42.676Z,19.54
2023-04-14T12:28:09.221Z,19.09
2023-04-14T12:30:37.310Z,18.61
2023-04-14T12:33:13.323Z,18.49
2023-04-14T12:35:43.093Z,18.11
2023-04-14T12:38:14.382Z,18.05
2023-04-14T12:40:43.726Z,18.09
2023-04-14T12:43:10.518Z,18.23
2023-04-14T12:45:44.513Z,18.21
2023-04-14T12:48:12.315Z,18.21
2023-04-14T12:50:39.471Z,18.20
2023-04-14T12:53:25.241Z,18.19
2023-04-14T12:56:11.548Z,18.17
2023-04-14T12:58:40.471Z,18.11
2023-04-14T13:01:09.378Z,17.98
2023-04-14T13:03:39.092Z,17.89
2023-04-14T13:06:05.914Z,17.81
2023-04-14T13:08:32.471Z,17.77
2023-04-14T13:10:58.926Z,17.76
2023-04-14T13:13:25.368Z,17.76
2023-04-14T13:16:14.603Z,17.81
2023-04-14T13:18:38.302Z,18.08
2023-04-14T13:21:04.941Z,18.39
2023-04-14T13:23:31.777Z,18.42
2023-04-14T13:25:59.052Z,18.43
2023-04-14T13:28:26.612Z,18.33
2023-04-14T13:30:54.757Z,18.60
2023-04-14T13:33:22.078Z,18.96
2023-04-14T13:35:48.664Z,19.03
2023-04-14T13:38:15.435Z,18.83
2023-04-14T13:40:41.987Z,18.73
2023-04-14T13:43:08.803Z,18.67
2023-04-14T13:45:35.757Z,18.59
2023-04-14T13:48:02.585Z,18.47
2023-04-14T13:50:29.739Z,18.47
2023-04-14T13:52:56.290Z,18.31
2023-04-14T13:55:22.758Z,18.27
2023-04-14T13:57:49.553Z,18.22
2023-04-14T14:00:16.332Z,18.27
2023-04-14T14:02:42.856Z,18.64
2023-04-14T14:05:10.898Z,18.82
2023-04-14T14:07:38.235Z,18.92
2023-04-14T14:10:05.727Z,18.90
2023-04-14T14:12:34.794Z,18.88
2023-04-14T14:15:01.753Z,18.81
2023-04-14T14:17:29.053Z,18.88
2023-04-14T14:19:55.774Z,18.95
2023-04-14T14:22:22.313Z,19.30
2023-04-14T14:24:48.821Z,19.49
2023-04-14T14:27:18.360Z,19.92
2023-04-14T14:29:45.121Z,20.40
2023-04-14T14:32:11.619Z,20.75
2023-04-14T14:34:39.080Z,20.57
2023-04-14T14:37:05.655Z,20.48
2023-04-14T14:39:32.672Z,20.18
2023-04-14T14:41:59.420Z,19.76
2023-04-14T14:44:26.005Z,19.14
2023-04-14T14:46:53.147Z,18.87
2023-04-14T14:49:20.961Z,18.77
2023-04-14T14:51:48.360Z,18.80
2023-04-14T14:54:14.986Z,18.60
2023-04-14T14:56:41.991Z,19.12
2023-04-14T14:59:08.564Z,19.62
2023-04-14T15:01:35.673Z,19.74
2023-04-14T15:04:03.015Z,19.82
2023-04-14T15:06:29.864Z,19.79
2023-04-14T15:08:56.808Z,19.81
2023-04-14T15:11:24.346Z,20.04
2023-04-14T15:13:51.094Z,20.03
2023-04-14T15:16:17.571Z,19.95
2023-04-14T15:18:44.776Z,19.93
2023-04-14T15:21:11.290Z,19.80
2023-04-14T15:23:39.621Z,19.67
2023-04-14T15:26:06.414Z,19.63
2023-04-14T15:28:32.892Z,19.62
2023-04-14T15:30:59.392Z,19.47
2023-04-14T15:33:26.373Z,19.39
2023-04-14T15:35:52.805Z,19.27
2023-04-14T15:38:19.828Z,19.13
2023-04-14T15:40:46.602Z,18.96
2023-04-14T15:43:13.140Z,18.86
2023-04-14T15:45:40.064Z,18.80
2023-04-14T15:48:06.701Z,18.62
2023-04-14T15:50:33.277Z,18.47
2023-04-14T15:52:59.730Z,18.33
2023-04-14T15:55:27.488Z,18.16
2023-04-14T15:57:54.070Z,18.05
2023-04-14T16:00:22.468Z,18.00
2023-04-14T16:02:49.066Z,17.86
2023-04-14T16:05:16.784Z,17.73
2023-04-14T16:07:45.525Z,17.62
2023-04-14T16:10:12.194Z,17.51
2023-04-14T16:12:39.249Z,17.49
2023-04-14T16:15:09.173Z,17.43
2023-04-14T16:17:35.757Z,17.39
2023-04-14T16:20:02.879Z,17.26
2023-04-14T16:22:31.114Z,17.26
2023-04-14T16:24:57.596Z,17.19
2023-04-14T16:27:24.181Z,17.14
2023-04-14T16:29:53.285Z,17.06
2023-04-14T16:32:19.749Z,17.04
2023-04-14T16:34:46.649Z,16.93
2023-04-14T16:37:13.185Z,16.94
2023-04-14T16:39:41.136Z,16.95
2023-04-14T16:42:09.332Z,16.95
2023-04-14T16:44:37.569Z,16.93
2023-04-14T16:47:04.034Z,16.96
2023-04-14T16:49:30.639Z,16.92
2023-04-14T16:51:57.529Z,16.89
2023-04-14T16:54:24.048Z,16.83
2023-04-14T16:56:51.904Z,16.83
2023-04-14T16:59:18.456Z,16.78
2023-04-14T17:01:45.242Z,16.72
2023-04-14T17:04:12.253Z,16.66
2023-04-14T17:06:38.953Z,16.62
2023-04-14T17:09:05.664Z,16.60
2023-04-14T17:11:32.410Z,16.46
2023-04-14T17:13:58.879Z,16.45
2023-04-14T17:16:25.363Z,16.45
2023-04-14T17:18:51.924Z,16.40
2023-04-14T17:21:18.404Z,16.37
2023-04-14T17:23:44.905Z,16.26
2023-04-14T17:26:11.480Z,16.26
2023-04-14T17:28:38.949Z,16.21
2023-04-14T17:31:14.157Z,16.16
2023-04-14T17:33:44.789Z,16.13
2023-04-14T17:36:15.512Z,16.08
2023-04-14T17:38:43.155Z,16.05
2023-04-14T17:41:10.985Z,16.00
2023-04-14T17:43:39.478Z,15.93
2023-04-14T17:46:06.379Z,15.90
2023-04-14T17:48:35.837Z,15.75
2023-04-14T17:51:03.120Z,15.76
2023-04-14T17:53:30.927Z,15.71
2023-04-14T17:55:57.743Z,15.66
2023-04-14T17:58:25.241Z,15.55
2023-04-14T18:00:52.073Z,15.48
2023-04-14T18:03:18.603Z,15.35
2023-04-14T18:05:45.363Z,15.19
2023-04-14T18:08:12.071Z,15.06
2023-04-14T18:10:39.190Z,14.97
2023-04-14T18:13:05.763Z,14.86
2023-04-14T18:15:32.244Z,14.81
2023-04-14T18:17:58.780Z,14.67
2023-04-14T18:20:26.329Z,14.56
2023-04-14T18:22:57.523Z,14.51
2023-04-14T18:25:24.040Z,14.40
2023-04-14T18:30:22.990Z,14.30
2023-04-14T18:32:55.297Z,14.21
2023-04-14T18:35:22.063Z,14.17
2023-04-14T18:37:48.745Z,14.09
2023-04-14T18:40:15.855Z,14.05
2023-04-14T18:42:42.283Z,13.98
2023-04-14T18:45:09.674Z,13.92
2023-04-14T18:47:36.262Z,13.86
2023-04-14T18:50:03.836Z,13.79
2023-04-14T18:52:30.494Z,13.69
2023-04-14T18:54:57.337Z,13.63
2023-04-14T18:57:23.897Z,13.53
2023-04-14T18:59:50.429Z,13.46
2023-04-14T19:02:16.927Z,13.38
2023-04-14T19:04:43.681Z,13.33
2023-04-14T19:07:10.639Z,13.26
2023-04-14T19:09:37.637Z,13.19
2023-04-14T19:12:04.248Z,13.12
2023-04-14T19:14:30.747Z,13.06
2023-04-14T19:16:57.902Z,12.99
2023-04-14T19:19:25.026Z,12.90
2023-04-14T19:21:51.636Z,12.79
2023-04-14T19:24:18.642Z,12.71
2023-04-14T19:26:45.151Z,12.65
2023-04-14T19:29:11.764Z,12.56
2023-04-14T19:31:38.543Z,12.51
2023-04-14T19:34:05.005Z,12.42
2023-04-14T19:36:32.325Z,12.35
2023-04-14T19:38:58.967Z,12.28
2023-04-14T19:41:25.981Z,12.22
2023-04-14T19:43:52.445Z,12.18
2023-04-14T19:46:18.987Z,12.11
2023-04-14T19:48:45.706Z,12.03
2023-04-14T19:51:12.129Z,11.96
2023-04-14T19:53:38.646Z,11.90
2023-04-14T19:56:05.700Z,11.79
2023-04-14T19:58:32.812Z,11.76
2023-04-14T20:00:59.414Z,11.70
2023-04-14T20:03:26.784Z,11.63
2023-04-14T20:05:55.863Z,11.59
2023-04-14T20:08:23.538Z,11.53
2023-04-14T20:10:52.630Z,11.45
2023-04-14T20:13:24.383Z,11.38
2023-04-14T20:15:53.835Z,11.31
2023-04-14T20:18:20.978Z,11.26
2023-04-14T20:20:48.589Z,11.09
2023-04-14T20:23:15.814Z,11.13
2023-04-14T20:25:43.955Z,11.01
2023-04-14T20:28:10.491Z,10.98
2023-04-14T20:30:37.695Z,10.93
2023-04-14T20:33:04.571Z,10.92
2023-04-14T20:35:34.712Z,10.88
2023-04-14T20:38:01.233Z,10.83
2023-04-14T20:40:27.719Z,10.78
2023-04-14T20:42:54.434Z,10.68
2023-04-14T20:45:22.078Z,10.67
2023-04-14T20:47:49.200Z,10.63
2023-04-14T20:50:16.982Z,10.57
2023-04-14T20:52:44.663Z,10.52
2023-04-14T20:55:13.298Z,10.52
2023-04-14T20:57:40.687Z,10.47
2023-04-14T21:00:10.116Z,10.41
2023-04-14T21:02:40.029Z,10.34
2023-04-14T21:05:07.012Z,10.31
2023-04-14T21:07:35.512Z,10.25
2023-04-14T21:10:04.059Z,10.17
2023-04-14T21:12:33.778Z,10.11
2023-04-14T21:15:41.649Z,10.01
2023-04-14T21:17:51.263Z,9.98
2023-04-14T21:20:17.717Z,9.98
2023-04-14T21:22:44.147Z,10.00
2023-04-14T21:25:10.594Z,10.04
2023-04-14T21:27:37.313Z,10.02
2023-04-14T21:30:04.619Z,10.11
2023-04-14T21:32:31.115Z,10.14
2023-04-14T21:34:57.804Z,10.22
2023-04-14T21:37:25.020Z,10.26
2023-04-14T21:39:51.466Z,10.30
2023-04-14T21:42:17.936Z,10.35
2023-04-14T21:44:44.490Z,10.33
2023-04-14T21:47:10.990Z,10.37
2023-04-14T21:49:37.516Z,10.41
2023-04-14T21:52:04.013Z,10.42
2023-04-14T21:54:31.818Z,10.42
2023-04-14T21:56:59.281Z,10.38
2023-04-14T21:59:25.872Z,10.36
2023-04-14T22:01:52.343Z,10.35
2023-04-14T22:04:33.122Z,10.32
2023-04-14T22:07:02.776Z,10.30
2023-04-14T22:09:29.244Z,10.24
2023-04-14T22:11:56.516Z,10.20
2023-04-14T22:14:23.534Z,10.16
2023-04-14T22:16:50.112Z,10.11
2023-04-14T22:19:16.805Z,10.05
2023-04-14T22:21:43.626Z,9.96
2023-04-14T22:24:10.407Z,9.95
2023-04-14T22:26:36.849Z,9.90
2023-04-14T22:29:04.162Z,9.80
2023-04-14T22:31:31.088Z,9.78
2023-04-14T22:33:57.598Z,9.75
2023-04-14T22:36:24.187Z,9.70
2023-04-14T22:38:50.702Z,9.65
2023-04-14T22:41:18.335Z,9.67
2023-04-14T22:43:44.851Z,9.63
2023-04-14T22:46:11.713Z,9.55
2023-04-14T22:48:38.200Z,9.54
2023-04-14T22:51:04.633Z,9.49
2023-04-14T22:53:31.345Z,9.51
2023-04-14T22:55:58.275Z,9.50
2023-04-14T22:58:25.208Z,9.47
2023-04-14T23:00:51.866Z,9.53
2023-04-14T23:03:18.443Z,9.54
2023-04-14T23:05:45.083Z,9.58
2023-04-14T23:08:11.562Z,9.51
2023-04-14T23:10:37.984Z,9.51
2023-04-14T23:13:04.447Z,9.49
2023-04-14T23:15:31.112Z,9.47
2023-04-14T23:17:57.579Z,9.48
2023-04-14T23:20:24.791Z,9.55
2023-04-14T23:22:51.462Z,9.55
2023-04-14T23:25:18.297Z,9.51
2023-04-14T23:27:44.765Z,9.47
2023-04-14T23:30:11.444Z,9.45
2023-04-14T23:32:37.931Z,9.42
2023-04-14T23:35:05.495Z,9.38
2023-04-14T23:37:31.946Z,9.33
2023-04-14T23:39:58.391Z,9.27
2023-04-14T23:42:24.835Z,9.20
2023-04-14T23:44:51.463Z,9.17
2023-04-14T23:47:18.155Z,9.12
2023-04-14T23:49:44.613Z,9.09
2023-04-14T23:52:11.200Z,9.04
2023-04-14T23:54:37.659Z,8.99
2023-04-14T23:57:04.424Z,8.96
2023-04-14T23:59:31.214Z,8.93
